Weather observations for the past three days for
Crockett, Houston County Airport
Imperial (Metric)
Date Time (cdt) Wind (mph) Vis. (mi.) Weather Sky Cond. Temperature (ºF) Relative Humidity Wind Chill (°F) Heat Index (°F) Pressure Precipitation (in)
Air Dwpt 6 hour altimeter (in) sea level (mb) 1 hr 3 hr 6 hr
Max. Min.
07 17:35 N 3 10.00 Fair CLR 64.4 60.8 88% 29.99 0.0
07 17:15 Calm 10.00 Light Rain CLR 64.4 60.8 88% 29.99 0.0
07 16:55 NW 5 7.00 Light Rain CLR 64.4 60.8 88% 29.98 0.0
07 16:35 N 6 10.00 Fair CLR 66.2 55.4 68% 29.99 0.0
07 16:15 NW 7 10.00 Fair CLR 68 57.2 69% 30 0.0
07 15:55 N 7 10.00 Fair CLR 69.8 55.4 60% 29.99 0.0
07 15:35 Vrbl 5 G 14 10.00 Fair CLR 69.8 55.4 60% 29.99 0.0
07 15:15 NE 9 8.00 Fair CLR 69.8 55.4 60% 29.98 0.0
07 14:35 Calm 10.00 Fair CLR 68 53.6 60% 30.03 0.0
07 14:15 NE 5 10.00 Fair CLR 68 53.6 60% 30.02 0.0
07 13:55 Vrbl 5 G 13 10.00 Fair CLR 66.2 51.8 60% 30.04 0.0
07 13:35 NE 10 10.00 Fair CLR 66.2 51.8 60% 30.01 0.0
07 13:15 NE 9 10.00 Fair CLR 66.2 53.6 64% 30.04 0.0
07 12:55 N 7 G 14 10.00 Fair CLR 66.2 51.8 60% 30.05 0.0
07 12:15 N 8 10.00 Fair CLR 64.4 51.8 64% 30.05 0.0
07 11:55 N 8 10.00 Fair CLR 64.4 51.8 64% 30.05 0.0
07 11:35 Vrbl 7 G 15 10.00 Fair CLR 66.2 51.8 60% 30.04 0.0
07 10:55 NE 9 G 15 10.00 Fair CLR 62.6 51.8 68% 30.03 0.0
07 10:35 Vrbl 7 10.00 Fair CLR 62.6 51.8 68% 30.07 0.0
07 10:15 N 9 G 16 10.00 Fair CLR 60.8 50 68% 30.06 0.0
07 09:55 N 10 G 16 10.00 Fair CLR 60.8 50 68% 30.07 0.0
07 09:35 N 9 10.00 Fair CLR 60.8 50 68% 30.08 0.0
07 09:15 N 9 G 16 10.00 Fair CLR 59 50 72% 30.07 0.0
07 08:55 N 9 G 15 10.00 A Few Clouds FEW023 60.8 51.8 72% 30.07 0.0
07 08:35 N 8 10.00 Partly Cloudy SCT023 59 50 72% 30.07 0.0
07 08:15 N 6 10.00 NULL NULL 57.2 50 77% 30.06 0.0
07 07:55 N 6 10.00 Overcast OVC022 57.2 50 77% 30.07 0.0
07 07:35 N 7 10.00 Overcast OVC021 57.2 50 77% 30.04 0.0
07 07:15 N 7 10.00 Overcast OVC020 57.2 51.8 82% 30.03 0.0
07 06:55 N 8 10.00 Overcast OVC019 57.2 53.6 88% 30.04 0.0
07 06:35 N 7 10.00 Overcast OVC018 57.2 53.6 88% 30.03 0.0
07 05:55 N 6 10.00 Overcast OVC018 57.2 53.6 88% 30.01 0.0
07 05:35 Vrbl 5 10.00 Overcast OVC016 57.2 53.6 88% 30.02 0.0
07 05:15 N 6 10.00 Overcast OVC015 57.2 53.6 88% 30 0.0
07 04:55 Vrbl 7 10.00 Overcast OVC013 57.2 55.4 94% 29.98 0.0
07 04:35 N 9 10.00 Overcast OVC012 57.2 55.4 94% 29.98 0.0
07 04:15 NE 6 10.00 Mostly Cloudy BKN012 57.2 55.4 94% 29.96 0.0
07 03:55 NE 10 10.00 Mostly Cloudy BKN012 BKN020 57.2 55.4 94% 29.95 0.0
07 03:35 NE 9 10.00 Mostly Cloudy BKN010 BKN020 57.2 55.4 94% 29.96 0.0
07 03:15 N 9 10.00 Partly Cloudy SCT009 57.2 57.2 100% 29.97 0.0
07 02:55 N 13 G 18 10.00 Partly Cloudy SCT009 57.2 57.2 100% 29.98 0.0
07 02:35 NE 8 10.00 Fair CLR 57.2 57.2 100% 29.98 0.0
07 02:15 N 8 G 15 9.00 A Few Clouds FEW009 57.2 57.2 100% 29.99 0.0
07 01:55 N 10 10.00 A Few Clouds FEW009 59 59 100% 29.99 0.0
07 01:35 N 9 G 16 9.00 Partly Cloudy SCT010 59 59 100% 29.98 0.0
07 01:15 N 6 G 14 10.00 Overcast BKN010 OVC014 60.8 59 94% 30 0.0
07 00:55 N 12 10.00 Mostly Cloudy BKN009 60.8 60.8 100% 29.99 0.0
07 00:35 N 10 10.00 Mostly Cloudy BKN009 60.8 60.8 100% 29.98 0.0
07 00:15 N 10 10.00 Mostly Cloudy BKN010 60.8 60.8 100% 29.98 0.0
06 23:35 N 7 8.00 A Few Clouds FEW009 62.6 62.6 100% 29.97 0.0
06 23:15 N 6 10.00 Mostly Cloudy BKN009 62.6 62.6 100% 29.98 0.0
06 22:55 Vrbl 5 G 12 10.00 Overcast OVC010 62.6 62.6 100% 29.97 0.0
06 22:35 N 8 10.00 Overcast OVC010 62.6 62.6 100% 29.96 0.0
06 22:15 N 8 10.00 Overcast OVC010 62.6 62.6 100% 29.95 0.0
06 21:55 N 7 9.00 Overcast OVC010 62.6 62.6 100% 29.94 0.0
06 21:35 Vrbl 6 8.00 Overcast OVC011 62.6 62.6 100% 29.92 0.0
06 20:55 N 8 10.00 Overcast OVC012 62.6 60.8 94% 29.91 0.0
06 20:35 N 8 10.00 Overcast OVC012 64.4 60.8 88% 29.9 0.0
06 20:15 N 7 10.00 Overcast OVC013 64.4 60.8 88% 29.89 0.0
06 19:55 N 8 10.00 Mostly Cloudy BKN014 64.4 60.8 88% 29.88 0.0
06 19:35 N 6 9.00 Fair CLR 64.4 62.6 94% 29.88 0.0
06 19:15 NW 8 10.00 Fair CLR 66.2 62.6 88% 29.87 0.0
06 18:55 N 8 10.00 Fair CLR 68 62.6 83% 29.86 0.0
06 18:35 N 8 G 14 10.00 Fair CLR 69.8 62.6 78% 29.85 0.0
06 18:15 N 7 G 14 9.00 Fair CLR 69.8 64.4 83% 29.85 0.0
06 17:55 N 9 G 15 10.00 Fair CLR 71.6 66.2 83% 29.84 0.0
06 17:35 NW 8 10.00 Fair CLR 71.6 66.2 83% 29.84 0.0
06 17:15 NW 7 10.00 Fair CLR 73.4 68 83% 29.83 0.0
06 16:55 NW 7 10.00 Fair CLR 73.4 68 83% 29.83 0.0
06 16:35 NW 8 10.00 Mostly Cloudy BKN021 73.4 68 83% 29.83 0.0
06 16:15 NW 9 10.00 Overcast OVC021 73.4 68 83% 29.82 0.0
06 15:55 NW 9 G 15 10.00 Overcast OVC019 75.2 69.8 83% 75 29.82 0.0
06 15:35 NW 6 9.00 Partly Cloudy SCT018 78.8 73.4 84% 82 29.82 0.0
06 15:15 W 5 9.00 Fair CLR 78.8 73.4 84% 82 29.82 0.0
06 14:55 Calm 9.00 Fair CLR 77 71.6 83% 78 29.83 0.0
06 14:35 Calm 9.00 Fair CLR 75.2 69.8 83% 75 29.82 0.0
06 14:15 NE 3 8.00 Fair CLR 73.4 69.8 89% 29.83 0.0
06 13:55 NE 6 7.00 Fair CLR 69.8 68 94% 29.83 0.0
06 13:35 NE 8 6.00 Fog/Mist FEW008 68 68 100% 29.84 0.0
06 13:15 N 8 6.00 Fog/Mist BKN008 68 66.2 94% 29.86 0.0
06 12:55 N 7 6.00 Fog/Mist BKN009 66.2 66.2 100% 29.88 0.0 0.04
06 12:35 NW 7 7.00 Partly Cloudy SCT011 68 66.2 94% 29.9 0.0
06 12:15 NW 9 G 16 5.00 Light Rain Fog/Mist FEW012 68 68 100% 29.9 0.0
06 11:55 NW 8 G 15 2.00 Rain Fog/Mist FEW014 69.8 69.8 100% 29.9 0.0 0.08
06 11:35 NW 10 2.50 Light Rain Fog/Mist SCT014 73.4 73.4 100% 29.89 0.0
06 11:15 SW 6 6.00 Fog/Mist SCT015 77 75.2 94% 78 29.88 0.0
06 10:55 Vrbl 3 6.00 Fog/Mist FEW014 78.8 75.2 89% 82 29.86 0.0
06 10:35 Calm 4.00 Light Rain Fog/Mist SCT016 77 77 100% 78 29.85 0.0
06 10:15 S 6 6.00 Light Rain Fog/Mist BKN016 77 75.2 94% 78 29.85 0.0
06 09:55 S 6 6.00 Fog/Mist FEW013 77 75.2 94% 78 29.85 0.0
06 09:35 S 5 6.00 Fog/Mist FEW012 77 75.2 94% 78 29.84 0.0
06 09:15 Vrbl 3 6.00 Fog/Mist FEW015 77 75.2 94% 78 29.83 0.0
06 08:55 Calm 5.00 Fog/Mist SCT015 75.2 75.2 100% 73 29.83 0.0
06 08:15 Calm 4.00 Fog/Mist BKN015 BKN020 73.4 73.4 100% 29.83 0.0
06 07:55 Calm 4.00 Fog/Mist SCT015 SCT022 73.4 73.4 100% 29.83 0.0
06 07:35 Calm 3.00 Fog/Mist BKN016 BKN023 BKN028 73.4 73.4 100% 29.83 0.0
06 07:15 Calm 2.50 Fog/Mist FEW023 SCT029 71.6 71.6 100% 29.82 0.0
06 06:55 Calm 3.00 Fog/Mist SCT018 SCT024 SCT028 71.6 71.6 100% 29.81 0.0
06 06:35 Calm 3.00 Fog/Mist BKN018 BKN027 BKN032 71.6 71.6 100% 29.81 0.0
06 06:15 Calm 5.00 Fog/Mist BKN018 BKN026 OVC033 71.6 71.6 100% 29.8 0.0
06 05:55 Calm 5.00 Fog/Mist BKN019 OVC029 71.6 71.6 100% 29.8 0.0
06 05:35 Calm 5.00 Fog/Mist BKN019 BKN036 BKN048 71.6 71.6 100% 29.79 0.0
06 05:15 Calm 5.00 Fog/Mist SCT018 BKN024 OVC043 73.4 73.4 100% 29.79 0.0
06 04:55 Calm 5.00 Fog/Mist FEW016 SCT023 BKN039 71.6 71.6 100% 29.79 0.0
06 04:35 Calm 5.00 Fog/Mist BKN016 BKN022 BKN028 73.4 73.4 100% 29.79 0.0
06 04:15 Calm 6.00 Fog/Mist SCT018 SCT023 BKN030 73.4 73.4 100% 29.78 0.0
06 03:55 S 5 6.00 Fog/Mist FEW020 SCT025 OVC031 73.4 73.4 100% 29.79 0.0
06 03:35 SE 3 7.00 Overcast BKN019 OVC025 73.4 73.4 100% 29.79 0.0
06 03:15 SE 5 7.00 Overcast BKN021 OVC027 73.4 73.4 100% 29.79 0.0
06 02:55 SE 5 7.00 Overcast OVC021 73.4 73.4 100% 29.79 0.0
06 02:35 SE 5 7.00 Partly Cloudy SCT020 SCT025 73.4 73.4 100% 29.79 0.0
06 02:15 SE 5 7.00 Fair CLR 73.4 73.4 100% 29.79 0.0
06 01:55 SE 6 7.00 Fair CLR 73.4 73.4 100% 29.79 0.0
06 01:35 SE 8 8.00 Mostly Cloudy BKN047 73.4 73.4 100% 29.79 0.0
06 01:15 SE 8 8.00 Overcast OVC047 75.2 75.2 100% 73 29.79 0.0
06 00:55 SE 8 9.00 Overcast OVC046 75.2 75.2 100% 73 29.79 0.0
06 00:35 SE 9 9.00 Overcast OVC046 75.2 75.2 100% 73 29.79 0.0
06 00:15 S 8 9.00 Overcast OVC046 75.2 75.2 100% 73 29.79 0.0
05 23:55 SE 10 9.00 Overcast OVC045 75.2 75.2 100% 73 29.78 0.0
05 23:35 SE 7 10.00 Overcast OVC044 75.2 75.2 100% 73 29.79 0.0
05 23:15 SE 7 10.00 Mostly Cloudy BKN044 75.2 73.4 94% 74 29.78 0.0
05 22:55 SE 6 10.00 Overcast FEW026 OVC044 75.2 73.4 94% 74 29.78 0.0
05 22:35 SE 5 10.00 Overcast BKN025 OVC043 75.2 73.4 94% 74 29.77 0.0
05 22:15 Calm 6.00 Fog/Mist BKN027 OVC040 75.2 73.4 94% 74 29.77 0.0
05 21:55 S 5 10.00 Overcast SCT028 OVC040 75.2 73.4 94% 74 29.76 0.0
05 21:35 Calm 10.00 Partly Cloudy SCT039 73.4 71.6 94% 29.75 0.0
05 21:15 Calm 2.50 Fog/Mist CLR 75.2 71.6 89% 75 29.74 0.0
05 20:55 Calm 10.00 Fair CLR 77 71.6 83% 78 29.74 0.0
05 20:35 S 5 10.00 Fair CLR 77 71.6 83% 78 29.73 0.0
05 20:15 S 7 G 13 10.00 Fair CLR 78.8 71.6 79% 82 29.71 0.0
05 19:55 S 8 G 15 10.00 Fair CLR 78.8 71.6 79% 82 29.71 0.0
05 19:35 S 8 10.00 Fair CLR 80.6 71.6 74% 85 29.71 0.0
05 19:15 Vrbl 6 10.00 Fair CLR 80.6 71.6 74% 85 29.7 0.0
05 18:55 S 9 10.00 Fair CLR 80.6 71.6 74% 85 29.69 0.0
05 18:35 S 10 10.00 Fair CLR 82.4 71.6 70% 87 29.7 0.0
05 18:15 S 8 10.00 Fair CLR 82.4 71.6 70% 87 29.69 0.0
05 17:55 S 12 G 20 10.00 Fair CLR 84.2 71.6 66% 90 29.69 0.0
05 17:35 S 15 G 22 10.00 Fair CLR 84.2 71.6 66% 90 29.7 0.0
05 17:15 S 10 G 18 10.00 Fair CLR 84.2 71.6 66% 90 29.7 0.0
05 16:55 S 14 10.00 Fair CLR 86 71.6 62% 92 29.7 0.0
05 16:35 S 14 G 21 10.00 Fair CLR 84.2 71.6 66% 90 29.71 0.0
05 16:15 S 10 G 18 10.00 Fair CLR 84.2 71.6 66% 90 29.7 0.0
05 15:55 S 10 G 18 10.00 Fair CLR 84.2 71.6 66% 90 29.72 0.0
05 15:35 S 13 G 23 10.00 Fair CLR 84.2 71.6 66% 90 29.73 0.0
05 15:15 S 10 G 16 10.00 Fair CLR 84.2 73.4 70% 91 29.74 0.0
05 14:55 S 13 10.00 Fair CLR 84.2 73.4 70% 91 29.74 0.0
05 14:35 S 12 G 21 10.00 Fair CLR 84.2 73.4 70% 91 29.75 0.0
05 14:15 S 12 10.00 Fair CLR 82.4 73.4 74% 88 29.75 0.0
05 13:55 S 14 G 22 10.00 Fair CLR 82.4 71.6 70% 87 29.75 0.0
05 13:35 S 14 G 23 10.00 Fair CLR 82.4 71.6 70% 87 29.76 0.0
05 13:15 S 14 G 21 10.00 A Few Clouds FEW025 80.6 71.6 74% 85 29.77 0.0
05 12:55 S 14 G 20 10.00 A Few Clouds FEW024 80.6 71.6 74% 85 29.77 0.0
05 12:35 S 13 10.00 Fair CLR 80.6 71.6 74% 85 29.77 0.0
05 12:15 S 10 G 21 10.00 A Few Clouds FEW020 78.8 71.6 79% 82 29.78 0.0
05 11:55 S 10 G 17 10.00 Fair CLR 78.8 71.6 79% 82 29.79 0.0
05 11:35 S 7 G 14 10.00 A Few Clouds FEW019 77 71.6 83% 78 29.79 0.0
05 11:15 S 9 10.00 A Few Clouds FEW018 77 71.6 83% 78 29.79 0.0
05 10:35 S 8 G 15 10.00 Partly Cloudy SCT017 75.2 71.6 89% 75 29.79 0.0
05 10:15 S 9 G 16 10.00 Partly Cloudy SCT015 75.2 71.6 89% 75 29.78 0.0
05 09:55 Vrbl 7 G 15 10.00 Mostly Cloudy BKN016 73.4 69.8 89% 29.78 0.0
05 09:35 S 8 10.00 Mostly Cloudy BKN016 73.4 69.8 89% 29.79 0.0
05 09:15 S 9 10.00 Mostly Cloudy BKN015 73.4 69.8 89% 29.78 0.0
05 08:55 S 8 10.00 Partly Cloudy SCT016 SCT020 73.4 69.8 89% 29.78 0.0
05 08:35 S 6 10.00 Mostly Cloudy BKN017 BKN021 69.8 69.8 100% 29.78 0.0
05 08:15 S 6 10.00 Mostly Cloudy SCT014 BKN021 69.8 69.8 100% 29.78 0.0
05 07:55 S 7 10.00 Mostly Cloudy SCT014 BKN020 BKN026 69.8 69.8 100% 29.78 0.0
05 07:35 S 6 10.00 Mostly Cloudy BKN015 BKN019 BKN025 68 68 100% 29.78 0.0
05 07:15 S 6 10.00 Overcast BKN014 OVC025 68 68 100% 29.76 0.0
05 06:55 S 7 10.00 Overcast FEW014 BKN023 OVC028 68 68 100% 29.75 0.0
05 06:35 S 6 10.00 Overcast BKN016 BKN022 OVC026 68 68 100% 29.76 0.0
05 06:15 S 7 10.00 Overcast BKN016 OVC022 68 68 100% 29.76 0.0
05 05:35 S 8 10.00 Overcast OVC018 66.2 66.2 100% 29.75 0.0
05 05:15 S 8 10.00 Overcast BKN016 OVC021 66.2 66.2 100% 29.75 0.0
05 04:55 S 7 10.00 Overcast OVC020 66.2 66.2 100% 29.75 0.0
05 04:35 S 7 10.00 Overcast OVC017 66.2 66.2 100% 29.75 0.0
05 04:15 SE 7 10.00 Overcast OVC017 66.2 66.2 100% 29.76 0.0
05 03:55 S 6 10.00 Overcast OVC018 66.2 66.2 100% 29.77 0.0
05 03:35 S 6 10.00 Overcast OVC018 66.2 66.2 100% 29.77 0.0
05 03:15 S 6 10.00 Overcast OVC019 66.2 66.2 100% 29.78 0.0
05 02:55 S 5 10.00 Overcast OVC019 66.2 66.2 100% 29.79 0.0
05 02:35 S 5 10.00 Mostly Cloudy BKN021 66.2 66.2 100% 29.79 0.0
05 02:15 S 6 10.00 Fair CLR 66.2 66.2 100% 29.8 0.0
05 01:55 S 7 10.00 Fair CLR 66.2 66.2 100% 29.8 0.0
05 01:35 S 7 10.00 A Few Clouds FEW029 66.2 66.2 100% 29.81 0.0
05 01:15 S 6 10.00 Fair CLR 68 64.4 88% 29.81 0.0
05 00:55 Vrbl 7 10.00 Fair CLR 68 64.4 88% 29.81 0.0
05 00:35 S 7 10.00 Fair CLR 68 64.4 88% 29.81 0.0
05 00:15 S 9 10.00 Fair CLR 68 64.4 88% 29.81 0.0
04 23:55 S 8 10.00 Fair CLR 68 64.4 88% 29.81 0.0
04 23:35 S 9 10.00 Fair CLR 69.8 64.4 83% 29.81 0.0
04 23:15 S 9 G 16 10.00 Fair CLR 69.8 64.4 83% 29.82 0.0
04 22:55 SE 9 10.00 Fair CLR 69.8 64.4 83% 29.81 0.0
04 22:35 S 9 10.00 Fair CLR 69.8 64.4 83% 29.82 0.0
04 22:15 SE 8 G 14 10.00 Fair CLR 69.8 64.4 83% 29.81 0.0
04 21:55 SE 7 10.00 Fair CLR 69.8 64.4 83% 29.82 0.0
04 21:35 SE 7 10.00 Fair CLR 71.6 64.4 78% 29.81 0.0
04 21:15 Vrbl 7 10.00 Fair CLR 71.6 64.4 78% 29.81 0.0
04 20:55 S 8 10.00 Fair CLR 71.6 64.4 78% 29.81 0.0
04 20:35 SE 10 10.00 Partly Cloudy SCT046 73.4 64.4 74% 29.8 0.0
04 20:15 SE 7 10.00 Partly Cloudy SCT046 73.4 64.4 74% 29.8 0.0
04 19:55 SE 6 10.00 Fair CLR 73.4 62.6 69% 29.79 0.0
04 19:35 S 7 10.00 Fair CLR 75.2 62.6 65% 77 29.79 0.0
04 19:15 S 5 10.00 Fair CLR 77 62.6 61% 79 29.8 0.0
04 18:55 S 8 10.00 Fair CLR 77 62.6 61% 79 29.8 0.0
04 18:35 S 8 10.00 Fair CLR 77 62.6 61% 79 29.81 0.0
04 18:15 S 10 10.00 Fair CLR 78.8 60.8 54% 80 29.81 0.0
04 17:55 S 12 10.00 Fair CLR 78.8 60.8 54% 80 29.82 0.0
Date Time (cdt) Wind (mph) Vis. (mi.) Weather Sky Cond. Air Dwpt Max. Min. Relative Humidity Wind Chill (°F) Heat Index (°F) altimeter (in) sea level (mb) 1 hr 3 hr 6 hr
6 hour
Temperature (ºF) Pressure Precipitation (in)